sensor_id;sensor_type;location;lat;lon;timestamp;P1;durP1;ratioP1;P2;durP2;ratioP2
48805;SDS011;34625;47.176;27.548;2023-10-19T00:00:48;15.88;;;9.15;;
48805;SDS011;34625;47.176;27.548;2023-10-19T00:03:18;15.77;;;9.35;;
48805;SDS011;34625;47.176;27.548;2023-10-19T00:05:45;13.70;;;8.60;;
48805;SDS011;34625;47.176;27.548;2023-10-19T00:08:12;12.95;;;9.00;;
48805;SDS011;34625;47.176;27.548;2023-10-19T00:10:39;18.30;;;9.05;;
48805;SDS011;34625;47.176;27.548;2023-10-19T00:13:08;15.90;;;9.05;;
48805;SDS011;34625;47.176;27.548;2023-10-19T00:15:40;14.10;;;9.43;;
48805;SDS011;34625;47.176;27.548;2023-10-19T00:18:27;14.50;;;9.05;;
48805;SDS011;34625;47.176;27.548;2023-10-19T00:20:57;12.70;;;8.05;;
48805;SDS011;34625;47.176;27.548;2023-10-19T00:23:44;19.75;;;9.25;;
48805;SDS011;34625;47.176;27.548;2023-10-19T00:26:12;15.13;;;9.18;;
48805;SDS011;34625;47.176;27.548;2023-10-19T00:28:52;14.77;;;9.13;;
48805;SDS011;34625;47.176;27.548;2023-10-19T00:31:21;17.33;;;9.75;;
48805;SDS011;34625;47.176;27.548;2023-10-19T00:33:47;15.85;;;9.93;;
48805;SDS011;34625;47.176;27.548;2023-10-19T00:36:17;18.67;;;9.75;;
48805;SDS011;34625;47.176;27.548;2023-10-19T00:38:46;16.13;;;9.38;;
48805;SDS011;34625;47.176;27.548;2023-10-19T00:41:12;17.30;;;9.88;;
48805;SDS011;34625;47.176;27.548;2023-10-19T00:43:42;18.85;;;9.63;;
48805;SDS011;34625;47.176;27.548;2023-10-19T00:46:09;14.63;;;9.80;;
48805;SDS011;34625;47.176;27.548;2023-10-19T00:51:41;17.20;;;8.73;;
48805;SDS011;34625;47.176;27.548;2023-10-19T00:54:17;17.27;;;9.48;;
48805;SDS011;34625;47.176;27.548;2023-10-19T00:57:01;18.92;;;10.00;;
48805;SDS011;34625;47.176;27.548;2023-10-19T00:59:39;15.88;;;9.35;;
48805;SDS011;34625;47.176;27.548;2023-10-19T01:02:19;16.05;;;9.57;;
48805;SDS011;34625;47.176;27.548;2023-10-19T01:04:55;17.50;;;9.95;;
48805;SDS011;34625;47.176;27.548;2023-10-19T01:07:27;16.48;;;9.05;;
48805;SDS011;34625;47.176;27.548;2023-10-19T01:09:58;19.05;;;9.00;;
48805;SDS011;34625;47.176;27.548;2023-10-19T01:12:26;16.55;;;9.32;;
48805;SDS011;34625;47.176;27.548;2023-10-19T01:15:17;14.20;;;8.98;;
48805;SDS011;34625;47.176;27.548;2023-10-19T01:17:53;18.33;;;9.73;;
48805;SDS011;34625;47.176;27.548;2023-10-19T01:20:31;14.43;;;9.48;;
48805;SDS011;34625;47.176;27.548;2023-10-19T01:31:26;16.25;;;8.73;;
48805;SDS011;34625;47.176;27.548;2023-10-19T01:33:55;14.18;;;8.35;;
48805;SDS011;34625;47.176;27.548;2023-10-19T01:36:25;16.02;;;9.20;;
48805;SDS011;34625;47.176;27.548;2023-10-19T01:38:52;16.10;;;9.40;;
48805;SDS011;34625;47.176;27.548;2023-10-19T01:41:20;13.05;;;9.30;;
48805;SDS011;34625;47.176;27.548;2023-10-19T01:43:47;17.42;;;8.98;;
48805;SDS011;34625;47.176;27.548;2023-10-19T01:46:16;15.95;;;9.35;;
48805;SDS011;34625;47.176;27.548;2023-10-19T01:48:57;14.40;;;10.23;;
48805;SDS011;34625;47.176;27.548;2023-10-19T01:51:23;15.68;;;9.65;;
48805;SDS011;34625;47.176;27.548;2023-10-19T01:53:54;18.45;;;10.55;;
48805;SDS011;34625;47.176;27.548;2023-10-19T01:56:26;16.43;;;8.93;;
48805;SDS011;34625;47.176;27.548;2023-10-19T01:58:52;15.77;;;9.43;;
48805;SDS011;34625;47.176;27.548;2023-10-19T02:01:20;16.27;;;9.00;;
48805;SDS011;34625;47.176;27.548;2023-10-19T02:03:55;19.23;;;9.82;;
48805;SDS011;34625;47.176;27.548;2023-10-19T02:06:28;15.73;;;9.52;;
48805;SDS011;34625;47.176;27.548;2023-10-19T02:09:12;18.17;;;9.27;;
48805;SDS011;34625;47.176;27.548;2023-10-19T02:11:43;13.95;;;9.15;;
48805;SDS011;34625;47.176;27.548;2023-10-19T02:14:18;18.33;;;9.55;;
48805;SDS011;34625;47.176;27.548;2023-10-19T02:16:46;15.93;;;9.13;;
48805;SDS011;34625;47.176;27.548;2023-10-19T02:19:16;19.20;;;10.00;;
48805;SDS011;34625;47.176;27.548;2023-10-19T02:21:42;16.23;;;8.68;;
48805;SDS011;34625;47.176;27.548;2023-10-19T02:24:12;17.73;;;9.02;;
48805;SDS011;34625;47.176;27.548;2023-10-19T02:26:40;17.33;;;9.60;;
48805;SDS011;34625;47.176;27.548;2023-10-19T02:29:07;18.00;;;9.55;;
48805;SDS011;34625;47.176;27.548;2023-10-19T02:31:38;17.58;;;9.52;;
48805;SDS011;34625;47.176;27.548;2023-10-19T02:34:06;15.00;;;9.35;;
48805;SDS011;34625;47.176;27.548;2023-10-19T02:36:36;17.83;;;9.93;;
48805;SDS011;34625;47.176;27.548;2023-10-19T02:39:07;18.42;;;9.38;;
48805;SDS011;34625;47.176;27.548;2023-10-19T02:41:35;18.17;;;9.50;;
48805;SDS011;34625;47.176;27.548;2023-10-19T02:44:07;14.20;;;9.90;;
48805;SDS011;34625;47.176;27.548;2023-10-19T02:46:36;14.65;;;9.30;;
48805;SDS011;34625;47.176;27.548;2023-10-19T02:49:08;16.55;;;9.40;;
48805;SDS011;34625;47.176;27.548;2023-10-19T02:51:39;16.08;;;9.88;;
48805;SDS011;34625;47.176;27.548;2023-10-19T02:54:12;13.98;;;10.05;;
48805;SDS011;34625;47.176;27.548;2023-10-19T02:56:48;17.70;;;10.15;;
48805;SDS011;34625;47.176;27.548;2023-10-19T02:59:20;18.85;;;11.60;;
48805;SDS011;34625;47.176;27.548;2023-10-19T03:01:51;16.52;;;10.93;;
48805;SDS011;34625;47.176;27.548;2023-10-19T03:04:34;20.23;;;10.70;;
48805;SDS011;34625;47.176;27.548;2023-10-19T03:07:04;17.67;;;11.32;;
48805;SDS011;34625;47.176;27.548;2023-10-19T03:09:31;15.98;;;10.82;;
48805;SDS011;34625;47.176;27.548;2023-10-19T03:14:34;20.25;;;10.32;;
48805;SDS011;34625;47.176;27.548;2023-10-19T03:17:00;17.42;;;10.98;;
48805;SDS011;34625;47.176;27.548;2023-10-19T03:19:27;13.55;;;8.75;;
48805;SDS011;34625;47.176;27.548;2023-10-19T03:21:53;16.40;;;10.57;;
48805;SDS011;34625;47.176;27.548;2023-10-19T03:24:26;15.13;;;9.40;;
48805;SDS011;34625;47.176;27.548;2023-10-19T03:27:07;27.83;;;16.15;;
48805;SDS011;34625;47.176;27.548;2023-10-19T03:29:44;20.02;;;12.13;;
48805;SDS011;34625;47.176;27.548;2023-10-19T03:32:12;15.60;;;10.43;;
48805;SDS011;34625;47.176;27.548;2023-10-19T03:34:38;17.95;;;9.85;;
48805;SDS011;34625;47.176;27.548;2023-10-19T03:37:04;13.40;;;7.35;;
48805;SDS011;34625;47.176;27.548;2023-10-19T03:39:37;9.27;;;6.32;;
48805;SDS011;34625;47.176;27.548;2023-10-19T03:42:05;6.90;;;5.15;;
48805;SDS011;34625;47.176;27.548;2023-10-19T03:44:34;7.18;;;4.68;;
48805;SDS011;34625;47.176;27.548;2023-10-19T03:47:12;13.20;;;8.50;;
48805;SDS011;34625;47.176;27.548;2023-10-19T03:49:43;14.73;;;8.70;;
48805;SDS011;34625;47.176;27.548;2023-10-19T03:52:09;15.63;;;8.52;;
48805;SDS011;34625;47.176;27.548;2023-10-19T03:54:36;17.10;;;9.73;;
48805;SDS011;34625;47.176;27.548;2023-10-19T03:57:07;15.02;;;8.95;;
48805;SDS011;34625;47.176;27.548;2023-10-19T03:59:55;16.58;;;9.93;;
48805;SDS011;34625;47.176;27.548;2023-10-19T04:02:24;14.80;;;9.57;;
48805;SDS011;34625;47.176;27.548;2023-10-19T04:04:52;5.75;;;4.32;;
48805;SDS011;34625;47.176;27.548;2023-10-19T04:07:20;7.63;;;5.20;;
48805;SDS011;34625;47.176;27.548;2023-10-19T04:09:48;10.40;;;6.85;;
48805;SDS011;34625;47.176;27.548;2023-10-19T04:12:33;11.98;;;6.88;;
48805;SDS011;34625;47.176;27.548;2023-10-19T04:15:06;12.70;;;6.07;;
48805;SDS011;34625;47.176;27.548;2023-10-19T04:17:39;16.17;;;9.40;;
48805;SDS011;34625;47.176;27.548;2023-10-19T04:20:11;14.55;;;9.73;;
48805;SDS011;34625;47.176;27.548;2023-10-19T04:22:40;14.57;;;9.70;;
48805;SDS011;34625;47.176;27.548;2023-10-19T04:25:06;14.07;;;10.02;;
48805;SDS011;34625;47.176;27.548;2023-10-19T04:27:33;13.90;;;9.63;;
48805;SDS011;34625;47.176;27.548;2023-10-19T04:30:02;14.80;;;10.15;;
48805;SDS011;34625;47.176;27.548;2023-10-19T04:32:29;14.50;;;10.10;;
48805;SDS011;34625;47.176;27.548;2023-10-19T04:34:57;15.05;;;9.45;;
48805;SDS011;34625;47.176;27.548;2023-10-19T04:37:24;16.63;;;9.60;;
48805;SDS011;34625;47.176;27.548;2023-10-19T04:39:50;17.80;;;9.48;;
48805;SDS011;34625;47.176;27.548;2023-10-19T04:42:16;22.13;;;11.05;;
48805;SDS011;34625;47.176;27.548;2023-10-19T04:44:42;19.90;;;12.10;;
48805;SDS011;34625;47.176;27.548;2023-10-19T04:47:07;24.55;;;12.88;;
48805;SDS011;34625;47.176;27.548;2023-10-19T04:49:34;30.90;;;14.18;;
48805;SDS011;34625;47.176;27.548;2023-10-19T04:51:59;23.20;;;14.23;;
48805;SDS011;34625;47.176;27.548;2023-10-19T04:54:25;28.92;;;15.18;;
48805;SDS011;34625;47.176;27.548;2023-10-19T04:56:52;22.00;;;13.57;;
48805;SDS011;34625;47.176;27.548;2023-10-19T04:59:21;22.17;;;13.52;;
48805;SDS011;34625;47.176;27.548;2023-10-19T05:01:46;21.17;;;12.50;;
48805;SDS011;34625;47.176;27.548;2023-10-19T05:04:12;18.55;;;8.98;;
48805;SDS011;34625;47.176;27.548;2023-10-19T05:06:38;9.60;;;6.15;;
48805;SDS011;34625;47.176;27.548;2023-10-19T05:09:04;7.43;;;5.20;;
48805;SDS011;34625;47.176;27.548;2023-10-19T05:11:31;8.07;;;5.75;;
48805;SDS011;34625;47.176;27.548;2023-10-19T05:13:57;9.02;;;7.43;;
48805;SDS011;34625;47.176;27.548;2023-10-19T05:16:23;10.55;;;8.43;;
48805;SDS011;34625;47.176;27.548;2023-10-19T05:18:49;11.13;;;8.80;;
48805;SDS011;34625;47.176;27.548;2023-10-19T05:21:15;10.88;;;8.73;;
48805;SDS011;34625;47.176;27.548;2023-10-19T05:23:41;13.75;;;10.00;;
48805;SDS011;34625;47.176;27.548;2023-10-19T05:26:07;11.18;;;7.53;;
48805;SDS011;34625;47.176;27.548;2023-10-19T05:28:33;15.05;;;9.15;;
48805;SDS011;34625;47.176;27.548;2023-10-19T05:30:59;14.30;;;9.98;;
48805;SDS011;34625;47.176;27.548;2023-10-19T05:33:26;23.83;;;12.98;;
48805;SDS011;34625;47.176;27.548;2023-10-19T05:35:54;24.35;;;13.20;;
48805;SDS011;34625;47.176;27.548;2023-10-19T05:38:20;21.92;;;13.15;;
48805;SDS011;34625;47.176;27.548;2023-10-19T05:40:47;20.25;;;13.05;;
48805;SDS011;34625;47.176;27.548;2023-10-19T05:43:15;23.92;;;13.93;;
48805;SDS011;34625;47.176;27.548;2023-10-19T05:45:42;20.15;;;13.77;;
48805;SDS011;34625;47.176;27.548;2023-10-19T05:48:08;23.73;;;14.10;;
48805;SDS011;34625;47.176;27.548;2023-10-19T05:50:36;24.58;;;12.98;;
48805;SDS011;34625;47.176;27.548;2023-10-19T05:53:03;20.73;;;12.25;;
48805;SDS011;34625;47.176;27.548;2023-10-19T05:55:30;26.40;;;14.73;;
48805;SDS011;34625;47.176;27.548;2023-10-19T05:57:57;23.20;;;13.98;;
48805;SDS011;34625;47.176;27.548;2023-10-19T06:00:24;21.70;;;12.98;;
48805;SDS011;34625;47.176;27.548;2023-10-19T06:02:53;21.73;;;11.68;;
48805;SDS011;34625;47.176;27.548;2023-10-19T06:05:19;21.35;;;12.52;;
48805;SDS011;34625;47.176;27.548;2023-10-19T06:07:46;15.10;;;10.57;;
48805;SDS011;34625;47.176;27.548;2023-10-19T06:10:15;14.65;;;10.15;;
48805;SDS011;34625;47.176;27.548;2023-10-19T06:12:46;18.48;;;9.98;;
48805;SDS011;34625;47.176;27.548;2023-10-19T06:15:13;16.42;;;9.07;;
48805;SDS011;34625;47.176;27.548;2023-10-19T06:17:40;13.60;;;8.90;;
48805;SDS011;34625;47.176;27.548;2023-10-19T06:20:08;9.65;;;6.45;;
48805;SDS011;34625;47.176;27.548;2023-10-19T06:22:55;13.07;;;8.02;;
48805;SDS011;34625;47.176;27.548;2023-10-19T06:25:25;14.48;;;9.63;;
48805;SDS011;34625;47.176;27.548;2023-10-19T06:27:51;14.07;;;9.55;;
48805;SDS011;34625;47.176;27.548;2023-10-19T06:30:18;16.88;;;9.93;;
48805;SDS011;34625;47.176;27.548;2023-10-19T06:32:52;22.05;;;10.45;;
48805;SDS011;34625;47.176;27.548;2023-10-19T06:35:26;17.70;;;9.63;;
48805;SDS011;34625;47.176;27.548;2023-10-19T06:37:53;18.40;;;10.00;;
48805;SDS011;34625;47.176;27.548;2023-10-19T06:40:20;15.82;;;9.13;;
48805;SDS011;34625;47.176;27.548;2023-10-19T06:42:47;15.38;;;9.93;;
48805;SDS011;34625;47.176;27.548;2023-10-19T06:45:15;14.77;;;9.73;;
48805;SDS011;34625;47.176;27.548;2023-10-19T06:47:45;17.95;;;9.48;;
48805;SDS011;34625;47.176;27.548;2023-10-19T06:50:13;14.20;;;8.98;;
48805;SDS011;34625;47.176;27.548;2023-10-19T06:52:41;14.98;;;8.52;;
48805;SDS011;34625;47.176;27.548;2023-10-19T06:55:08;11.10;;;7.68;;
48805;SDS011;34625;47.176;27.548;2023-10-19T06:57:54;16.40;;;8.20;;
48805;SDS011;34625;47.176;27.548;2023-10-19T07:00:26;15.68;;;7.68;;
48805;SDS011;34625;47.176;27.548;2023-10-19T07:02:52;10.75;;;7.35;;
48805;SDS011;34625;47.176;27.548;2023-10-19T07:05:22;12.80;;;7.20;;
48805;SDS011;34625;47.176;27.548;2023-10-19T07:08:06;13.55;;;6.30;;
48805;SDS011;34625;47.176;27.548;2023-10-19T07:10:32;11.75;;;7.07;;
48805;SDS011;34625;47.176;27.548;2023-10-19T07:13:00;9.32;;;6.05;;
48805;SDS011;34625;47.176;27.548;2023-10-19T07:15:26;9.13;;;5.60;;
48805;SDS011;34625;47.176;27.548;2023-10-19T07:17:53;10.65;;;6.43;;
48805;SDS011;34625;47.176;27.548;2023-10-19T07:20:20;10.10;;;6.90;;
48805;SDS011;34625;47.176;27.548;2023-10-19T07:22:55;11.07;;;6.18;;
48805;SDS011;34625;47.176;27.548;2023-10-19T07:25:25;11.07;;;6.47;;
48805;SDS011;34625;47.176;27.548;2023-10-19T07:27:52;7.55;;;5.90;;
48805;SDS011;34625;47.176;27.548;2023-10-19T07:30:18;10.38;;;6.20;;
48805;SDS011;34625;47.176;27.548;2023-10-19T07:32:51;7.45;;;5.75;;
48805;SDS011;34625;47.176;27.548;2023-10-19T07:35:24;9.65;;;5.65;;
48805;SDS011;34625;47.176;27.548;2023-10-19T07:37:53;11.25;;;6.47;;
48805;SDS011;34625;47.176;27.548;2023-10-19T07:40:20;7.93;;;5.65;;
48805;SDS011;34625;47.176;27.548;2023-10-19T07:42:48;7.25;;;5.63;;
48805;SDS011;34625;47.176;27.548;2023-10-19T07:45:15;5.60;;;4.68;;
48805;SDS011;34625;47.176;27.548;2023-10-19T07:47:42;9.07;;;4.00;;
48805;SDS011;34625;47.176;27.548;2023-10-19T07:50:08;8.27;;;3.90;;
48805;SDS011;34625;47.176;27.548;2023-10-19T07:52:44;6.05;;;3.33;;
48805;SDS011;34625;47.176;27.548;2023-10-19T07:55:14;6.25;;;4.68;;
48805;SDS011;34625;47.176;27.548;2023-10-19T07:57:41;4.78;;;4.07;;
48805;SDS011;34625;47.176;27.548;2023-10-19T08:00:08;6.72;;;5.00;;
48805;SDS011;34625;47.176;27.548;2023-10-19T08:02:36;10.82;;;4.03;;
48805;SDS011;34625;47.176;27.548;2023-10-19T08:05:03;8.32;;;5.10;;
48805;SDS011;34625;47.176;27.548;2023-10-19T08:07:32;4.88;;;4.32;;
48805;SDS011;34625;47.176;27.548;2023-10-19T08:10:00;7.75;;;4.90;;
48805;SDS011;34625;47.176;27.548;2023-10-19T08:12:27;5.35;;;4.07;;
48805;SDS011;34625;47.176;27.548;2023-10-19T08:14:53;5.63;;;4.10;;
48805;SDS011;34625;47.176;27.548;2023-10-19T08:17:21;5.60;;;4.60;;
48805;SDS011;34625;47.176;27.548;2023-10-19T08:19:47;8.13;;;3.95;;
48805;SDS011;34625;47.176;27.548;2023-10-19T08:22:13;7.28;;;3.70;;
48805;SDS011;34625;47.176;27.548;2023-10-19T08:24:40;8.18;;;4.50;;
48805;SDS011;34625;47.176;27.548;2023-10-19T08:27:08;9.68;;;4.65;;
48805;SDS011;34625;47.176;27.548;2023-10-19T08:29:36;7.45;;;4.35;;
48805;SDS011;34625;47.176;27.548;2023-10-19T08:32:03;9.25;;;3.95;;
48805;SDS011;34625;47.176;27.548;2023-10-19T08:34:33;18.25;;;5.85;;
48805;SDS011;34625;47.176;27.548;2023-10-19T08:37:01;7.85;;;5.18;;
48805;SDS011;34625;47.176;27.548;2023-10-19T08:39:30;8.23;;;4.70;;
48805;SDS011;34625;47.176;27.548;2023-10-19T08:42:03;9.38;;;4.95;;
48805;SDS011;34625;47.176;27.548;2023-10-19T08:44:30;6.03;;;4.75;;
48805;SDS011;34625;47.176;27.548;2023-10-19T08:46:56;6.07;;;4.07;;
48805;SDS011;34625;47.176;27.548;2023-10-19T08:49:24;7.00;;;4.78;;
48805;SDS011;34625;47.176;27.548;2023-10-19T08:51:54;12.02;;;8.18;;
48805;SDS011;34625;47.176;27.548;2023-10-19T08:54:21;6.80;;;5.47;;
48805;SDS011;34625;47.176;27.548;2023-10-19T08:56:47;9.90;;;5.68;;
48805;SDS011;34625;47.176;27.548;2023-10-19T08:59:13;9.35;;;4.78;;
48805;SDS011;34625;47.176;27.548;2023-10-19T09:01:42;7.57;;;5.57;;
48805;SDS011;34625;47.176;27.548;2023-10-19T09:04:12;9.13;;;5.45;;
48805;SDS011;34625;47.176;27.548;2023-10-19T09:06:42;7.28;;;5.57;;
48805;SDS011;34625;47.176;27.548;2023-10-19T09:09:08;9.70;;;5.20;;
48805;SDS011;34625;47.176;27.548;2023-10-19T09:11:47;11.68;;;5.75;;
48805;SDS011;34625;47.176;27.548;2023-10-19T09:14:14;7.70;;;5.35;;
48805;SDS011;34625;47.176;27.548;2023-10-19T09:16:55;5.78;;;3.95;;
48805;SDS011;34625;47.176;27.548;2023-10-19T09:19:38;7.78;;;5.82;;
48805;SDS011;34625;47.176;27.548;2023-10-19T09:22:07;4.40;;;3.30;;
48805;SDS011;34625;47.176;27.548;2023-10-19T09:24:42;13.95;;;5.38;;
48805;SDS011;34625;47.176;27.548;2023-10-19T09:27:10;7.22;;;4.22;;
48805;SDS011;34625;47.176;27.548;2023-10-19T09:29:37;7.28;;;4.90;;
48805;SDS011;34625;47.176;27.548;2023-10-19T09:32:04;7.25;;;4.00;;
48805;SDS011;34625;47.176;27.548;2023-10-19T09:34:32;14.45;;;5.20;;
48805;SDS011;34625;47.176;27.548;2023-10-19T09:37:00;5.95;;;3.92;;
48805;SDS011;34625;47.176;27.548;2023-10-19T09:39:29;10.82;;;5.63;;
48805;SDS011;34625;47.176;27.548;2023-10-19T09:44:34;8.77;;;4.90;;
48805;SDS011;34625;47.176;27.548;2023-10-19T09:47:09;9.15;;;4.78;;
48805;SDS011;34625;47.176;27.548;2023-10-19T09:50:00;9.63;;;5.18;;
48805;SDS011;34625;47.176;27.548;2023-10-19T09:52:28;7.55;;;4.22;;
48805;SDS011;34625;47.176;27.548;2023-10-19T09:58:15;5.50;;;3.97;;
48805;SDS011;34625;47.176;27.548;2023-10-19T10:00:45;7.03;;;4.35;;
48805;SDS011;34625;47.176;27.548;2023-10-19T10:06:13;10.73;;;6.22;;
48805;SDS011;34625;47.176;27.548;2023-10-19T10:08:41;10.23;;;4.30;;
48805;SDS011;34625;47.176;27.548;2023-10-19T10:13:44;5.32;;;2.90;;
48805;SDS011;34625;47.176;27.548;2023-10-19T10:16:14;4.03;;;3.40;;
48805;SDS011;34625;47.176;27.548;2023-10-19T10:18:40;8.02;;;3.42;;
48805;SDS011;34625;47.176;27.548;2023-10-19T10:21:10;9.40;;;3.45;;
48805;SDS011;34625;47.176;27.548;2023-10-19T10:26:24;4.38;;;3.20;;
48805;SDS011;34625;47.176;27.548;2023-10-19T10:31:43;4.10;;;2.80;;
48805;SDS011;34625;47.176;27.548;2023-10-19T10:34:12;5.90;;;2.92;;
48805;SDS011;34625;47.176;27.548;2023-10-19T10:37:06;4.57;;;3.13;;
48805;SDS011;34625;47.176;27.548;2023-10-19T10:39:34;6.43;;;3.55;;
48805;SDS011;34625;47.176;27.548;2023-10-19T10:42:05;6.85;;;3.40;;
48805;SDS011;34625;47.176;27.548;2023-10-19T10:47:10;3.65;;;3.00;;
48805;SDS011;34625;47.176;27.548;2023-10-19T10:49:51;4.90;;;3.30;;
48805;SDS011;34625;47.176;27.548;2023-10-19T10:55:20;4.78;;;3.45;;
48805;SDS011;34625;47.176;27.548;2023-10-19T10:57:45;5.07;;;3.50;;
48805;SDS011;34625;47.176;27.548;2023-10-19T11:00:12;3.42;;;3.10;;
48805;SDS011;34625;47.176;27.548;2023-10-19T11:02:43;5.80;;;3.53;;
48805;SDS011;34625;47.176;27.548;2023-10-19T11:05:15;7.82;;;3.10;;
48805;SDS011;34625;47.176;27.548;2023-10-19T11:08:02;4.47;;;2.78;;
48805;SDS011;34625;47.176;27.548;2023-10-19T11:10:29;3.95;;;2.70;;
48805;SDS011;34625;47.176;27.548;2023-10-19T11:15:31;5.32;;;3.10;;
48805;SDS011;34625;47.176;27.548;2023-10-19T11:17:58;6.13;;;2.58;;
48805;SDS011;34625;47.176;27.548;2023-10-19T11:20:25;3.58;;;2.63;;
48805;SDS011;34625;47.176;27.548;2023-10-19T11:22:55;4.63;;;2.20;;
48805;SDS011;34625;47.176;27.548;2023-10-19T11:27:50;4.53;;;2.28;;
48805;SDS011;34625;47.176;27.548;2023-10-19T11:30:23;4.50;;;2.33;;
48805;SDS011;34625;47.176;27.548;2023-10-19T11:32:53;3.83;;;2.53;;
48805;SDS011;34625;47.176;27.548;2023-10-19T11:35:25;4.18;;;2.45;;
48805;SDS011;34625;47.176;27.548;2023-10-19T11:37:53;2.72;;;2.40;;
48805;SDS011;34625;47.176;27.548;2023-10-19T11:40:21;5.72;;;2.88;;
48805;SDS011;34625;47.176;27.548;2023-10-19T11:42:48;4.68;;;2.30;;
48805;SDS011;34625;47.176;27.548;2023-10-19T11:45:16;3.72;;;2.35;;
48805;SDS011;34625;47.176;27.548;2023-10-19T11:47:43;2.85;;;2.28;;
48805;SDS011;34625;47.176;27.548;2023-10-19T11:50:10;3.05;;;2.60;;
48805;SDS011;34625;47.176;27.548;2023-10-19T11:52:44;7.07;;;2.40;;
48805;SDS011;34625;47.176;27.548;2023-10-19T11:55:14;3.45;;;2.38;;
48805;SDS011;34625;47.176;27.548;2023-10-19T11:57:41;10.40;;;2.67;;
48805;SDS011;34625;47.176;27.548;2023-10-19T12:00:09;7.18;;;2.72;;
48805;SDS011;34625;47.176;27.548;2023-10-19T12:02:49;6.43;;;3.03;;
48805;SDS011;34625;47.176;27.548;2023-10-19T12:05:15;4.03;;;2.58;;
48805;SDS011;34625;47.176;27.548;2023-10-19T12:07:41;3.00;;;2.28;;
48805;SDS011;34625;47.176;27.548;2023-10-19T12:10:10;4.10;;;2.25;;
48805;SDS011;34625;47.176;27.548;2023-10-19T12:12:37;7.45;;;2.50;;
48805;SDS011;34625;47.176;27.548;2023-10-19T12:15:04;6.90;;;2.60;;
48805;SDS011;34625;47.176;27.548;2023-10-19T12:17:33;14.38;;;2.53;;
48805;SDS011;34625;47.176;27.548;2023-10-19T12:20:00;8.43;;;2.47;;
48805;SDS011;34625;47.176;27.548;2023-10-19T12:22:26;9.07;;;2.83;;
48805;SDS011;34625;47.176;27.548;2023-10-19T12:24:56;3.72;;;2.50;;
48805;SDS011;34625;47.176;27.548;2023-10-19T12:27:23;4.10;;;2.55;;
48805;SDS011;34625;47.176;27.548;2023-10-19T12:29:54;9.27;;;2.50;;
48805;SDS011;34625;47.176;27.548;2023-10-19T12:32:21;6.30;;;2.35;;
48805;SDS011;34625;47.176;27.548;2023-10-19T12:34:47;6.22;;;2.40;;
48805;SDS011;34625;47.176;27.548;2023-10-19T12:37:18;4.00;;;2.50;;
48805;SDS011;34625;47.176;27.548;2023-10-19T12:39:45;3.97;;;2.45;;
48805;SDS011;34625;47.176;27.548;2023-10-19T12:42:14;5.55;;;3.00;;
48805;SDS011;34625;47.176;27.548;2023-10-19T12:44:43;4.82;;;2.80;;
48805;SDS011;34625;47.176;27.548;2023-10-19T12:47:10;10.40;;;2.85;;
48805;SDS011;34625;47.176;27.548;2023-10-19T12:49:39;10.50;;;2.50;;
48805;SDS011;34625;47.176;27.548;2023-10-19T12:52:09;3.92;;;2.05;;
48805;SDS011;34625;47.176;27.548;2023-10-19T12:54:35;6.50;;;2.45;;
48805;SDS011;34625;47.176;27.548;2023-10-19T12:57:03;5.22;;;2.97;;
48805;SDS011;34625;47.176;27.548;2023-10-19T12:59:32;3.42;;;2.65;;
48805;SDS011;34625;47.176;27.548;2023-10-19T13:01:59;3.65;;;2.25;;
48805;SDS011;34625;47.176;27.548;2023-10-19T13:04:28;4.82;;;2.75;;
48805;SDS011;34625;47.176;27.548;2023-10-19T13:06:56;9.07;;;2.92;;
48805;SDS011;34625;47.176;27.548;2023-10-19T13:09:25;3.60;;;2.22;;
48805;SDS011;34625;47.176;27.548;2023-10-19T13:11:59;3.05;;;2.03;;
48805;SDS011;34625;47.176;27.548;2023-10-19T13:14:26;4.35;;;2.70;;
48805;SDS011;34625;47.176;27.548;2023-10-19T13:16:53;5.93;;;2.42;;
48805;SDS011;34625;47.176;27.548;2023-10-19T13:19:22;4.22;;;2.28;;
48805;SDS011;34625;47.176;27.548;2023-10-19T13:21:52;3.38;;;1.88;;
48805;SDS011;34625;47.176;27.548;2023-10-19T13:24:19;5.97;;;2.30;;
48805;SDS011;34625;47.176;27.548;2023-10-19T13:26:46;3.05;;;2.17;;
48805;SDS011;34625;47.176;27.548;2023-10-19T13:29:13;5.75;;;2.33;;
48805;SDS011;34625;47.176;27.548;2023-10-19T13:31:42;5.72;;;2.38;;
48805;SDS011;34625;47.176;27.548;2023-10-19T13:34:15;5.63;;;2.47;;
48805;SDS011;34625;47.176;27.548;2023-10-19T13:36:41;7.28;;;2.25;;
48805;SDS011;34625;47.176;27.548;2023-10-19T13:39:09;2.92;;;1.77;;
48805;SDS011;34625;47.176;27.548;2023-10-19T13:41:41;2.22;;;1.85;;
48805;SDS011;34625;47.176;27.548;2023-10-19T13:44:07;4.25;;;2.00;;
48805;SDS011;34625;47.176;27.548;2023-10-19T13:46:38;4.20;;;2.15;;
48805;SDS011;34625;47.176;27.548;2023-10-19T13:49:04;3.75;;;2.33;;
48805;SDS011;34625;47.176;27.548;2023-10-19T13:51:31;2.70;;;1.73;;
48805;SDS011;34625;47.176;27.548;2023-10-19T13:53:57;3.67;;;1.80;;
48805;SDS011;34625;47.176;27.548;2023-10-19T13:56:23;3.67;;;2.28;;
48805;SDS011;34625;47.176;27.548;2023-10-19T13:58:49;5.50;;;2.72;;
48805;SDS011;34625;47.176;27.548;2023-10-19T14:01:17;3.50;;;2.38;;
48805;SDS011;34625;47.176;27.548;2023-10-19T14:03:43;2.97;;;2.08;;
48805;SDS011;34625;47.176;27.548;2023-10-19T14:06:13;4.35;;;2.40;;
48805;SDS011;34625;47.176;27.548;2023-10-19T14:08:39;2.58;;;2.03;;
48805;SDS011;34625;47.176;27.548;2023-10-19T14:11:05;5.78;;;2.35;;
48805;SDS011;34625;47.176;27.548;2023-10-19T14:13:33;2.72;;;2.10;;
48805;SDS011;34625;47.176;27.548;2023-10-19T14:16:04;4.43;;;2.25;;
48805;SDS011;34625;47.176;27.548;2023-10-19T14:18:34;5.13;;;2.47;;
48805;SDS011;34625;47.176;27.548;2023-10-19T14:21:01;3.70;;;2.25;;
48805;SDS011;34625;47.176;27.548;2023-10-19T14:23:36;4.80;;;2.30;;
48805;SDS011;34625;47.176;27.548;2023-10-19T14:26:04;5.78;;;2.67;;
48805;SDS011;34625;47.176;27.548;2023-10-19T14:28:30;6.28;;;3.08;;
48805;SDS011;34625;47.176;27.548;2023-10-19T14:30:56;6.07;;;3.30;;
48805;SDS011;34625;47.176;27.548;2023-10-19T14:33:23;4.43;;;2.75;;
48805;SDS011;34625;47.176;27.548;2023-10-19T14:35:49;4.75;;;3.20;;
48805;SDS011;34625;47.176;27.548;2023-10-19T14:38:15;4.03;;;2.75;;
48805;SDS011;34625;47.176;27.548;2023-10-19T14:40:41;11.10;;;3.28;;
48805;SDS011;34625;47.176;27.548;2023-10-19T14:43:10;3.40;;;2.88;;
48805;SDS011;34625;47.176;27.548;2023-10-19T14:45:39;6.63;;;3.38;;
48805;SDS011;34625;47.176;27.548;2023-10-19T14:48:06;4.38;;;2.60;;
48805;SDS011;34625;47.176;27.548;2023-10-19T14:50:35;3.88;;;2.63;;
48805;SDS011;34625;47.176;27.548;2023-10-19T14:53:02;3.97;;;2.22;;
48805;SDS011;34625;47.176;27.548;2023-10-19T14:55:29;10.13;;;2.25;;
48805;SDS011;34625;47.176;27.548;2023-10-19T14:57:55;4.53;;;2.60;;
48805;SDS011;34625;47.176;27.548;2023-10-19T15:00:22;7.25;;;2.78;;
48805;SDS011;34625;47.176;27.548;2023-10-19T15:02:49;2.35;;;2.10;;
48805;SDS011;34625;47.176;27.548;2023-10-19T15:05:16;5.07;;;2.25;;
48805;SDS011;34625;47.176;27.548;2023-10-19T15:07:43;6.95;;;2.58;;
48805;SDS011;34625;47.176;27.548;2023-10-19T15:10:11;2.45;;;1.73;;
48805;SDS011;34625;47.176;27.548;2023-10-19T15:12:41;2.13;;;1.77;;
48805;SDS011;34625;47.176;27.548;2023-10-19T15:15:07;6.15;;;2.45;;
48805;SDS011;34625;47.176;27.548;2023-10-19T15:17:37;5.70;;;2.47;;
48805;SDS011;34625;47.176;27.548;2023-10-19T15:20:05;3.35;;;2.00;;